Rufe, OK (74755)

5:59 PM CDT on August 04, 2015 (GMT -0500)
HADS | | Change Station
CLOSE
Current Station
Personal Weather Station
Location: Rufe, OK
Elevation: 490 ft
Nearby Weather Stations

Elev 490 ft 34.11 °N, 95.08 °W | Updated 59 minutes ago

Overcast
Overcast
92.0 °F
Feels Like 92.0 °F
N
2.0
Wind Variable Wind from SSE
Gusts 0.0 mph

Today
High -- | Low -- °F
--% Chance of Precip.
Yesterday
High -- | Low -- °F
Precip. -- in
6:33 AM 8:19 PM
Waning Gibbous, 73% visible
Pressure 29.92 in
Visibility 10.0 miles
Clouds Clear
Dew Point 67.0 °F
Humidity 44%
Rainfall in
Snow Depth Not available.
UV 3 out of 12
Pollen 5.70 out of 12
Air Quality Not available.
Flu Activity Not available.
METAR K4O4 042255Z AUTO 07006KT 10SM CLR 32/19 A2992 RMK AO2

More Conditions Fewer Conditions

Pressure 29.92 in
Visibility 10.0 miles
Clouds Clear
Dew Point 67.0 °F
Humidity 44%
Rainfall in
Snow Depth Not available.
UV 3 out of 12
Pollen 5.70 out of 12
Air Quality Not available.
Flu Activity Not available.
METAR K4O4 042255Z AUTO 07006KT 10SM CLR 32/19 A2992 RMK AO2

More Conditions Fewer Conditions

Nowcast | as of 4:34 PM CDT on August 4, 2015

light showers are developing and moving northeast at 15 mph across portions of northeast Texas...southeast Oklahoma and southwestern Arkansas. Rainfall amounts less than a tenth of an inch can be expected.

×

10-Day Weather Forecast

×

Almanac

Astronomy

Aug. 04, 2015 Rise Set
Actual Time
Civil Twilight
Nautical Twilight
Astronomical Twilight
Moon
Length of Visible Light
Length of Day
Tomorrow will be .
, % of the Moon is Illuminated

Today's Extremes

State Highs State Lows

Community

WunderPhotos

Upload Photos

1,844,011 photos uploaded!

WunderBlogs® & News

Nearby

Air Quality

  Air Quality AQ Index Pollutant
Not available.

Snow Depth

Station Depth Elevation

Earthquake Activity

City Distance Mag. Time & Date
Minimum magnitude displayed is 2.5.

Coastal Water Temperatures

Place Temperature

Stations

Nearby Weather Stations

Station Location Temp. Windchill Dew Point Humidity Wind Precip. Elev Updated Type